Evansville, AR (72729)

5:02 PM CDT on June 03, 2015 (GMT -0500)
KARPRAIR2 | | Change Station
CLOSE
Current Station
Personal Weather Station
Location: Prairie Grove, AR
Elevation: 1385 ft
Nearby Weather Stations

Elev 1385 ft 35.93 °N, 94.33 °W | Updated 2 minutes ago

Partly Cloudy
Partly Cloudy
82.3 °F
Feels Like 86 °F
N
3.0
Wind Variable Wind from SSE
Gusts 5.0 mph

Today
High -- | Low -- °F
--% Chance of Precip.
Yesterday
High -- | Low -- °F
Precip. -- in
6:02 AM 8:29 PM
Full, 98% visible
Pressure 29.91 in
Visibility 10.0 miles
Clouds Few 4600 ft
Heat Index 86 °F
Dew Point 69 °F
Humidity 64%
Rainfall 0.00 in
Snow Depth Not available.
UV 5 out of 12
Pollen 7.30 out of 12
Air Quality Not available.
Flu Activity No Activity
METAR KFYV 032153Z VRB04KT 10SM FEW046 27/18 A2995 RMK AO2 SLP128 T02720183

More Conditions Fewer Conditions

Pressure 29.91 in
Visibility 10.0 miles
Clouds Few 4600 ft
Heat Index 86 °F
Dew Point 69 °F
Humidity 64%
Rainfall 0.00 in
Snow Depth Not available.
UV 5 out of 12
Pollen 7.30 out of 12
Air Quality Not available.
Flu Activity No Activity
METAR KFYV 032153Z VRB04KT 10SM FEW046 27/18 A2995 RMK AO2 SLP128 T02720183

More Conditions Fewer Conditions

10-Day Weather Forecast

×

Almanac

Astronomy

Jun. 03, 2015 Rise Set
Actual Time
Civil Twilight
Nautical Twilight
Astronomical Twilight
Moon
Length of Visible Light
Length of Day
Tomorrow will be .
, % of the Moon is Illuminated

Today's Extremes

State Highs State Lows

Community

WunderPhotos

Upload Photos

1,826,291 photos uploaded!

WunderBlogs® & News

Nearby

Air Quality

  Air Quality AQ Index Pollutant
Not available.

Snow Depth

Station Depth Elevation

Earthquake Activity

City Distance Mag. Time & Date
Minimum magnitude displayed is 2.5.

Coastal Water Temperatures

Place Temperature

Stations

Nearby Weather Stations

Station Location Temp. Windchill Dew Point Humidity Wind Precip. Elev Updated Type